Time;durP1;ratioP1;P1;durP2;ratioP2;P2;SDS_P1;SDS_P2;PMS_P1;PMS_P2;Temp;Humidity;BMP_temperature;BMP_pressure;BME280_temperature;BME280_humidity;BME280_pressure;Samples;Min_cycle;Max_cycle;Signal;HPM_P1;HPM_P2
2023/10/24 00:00:00;;;;;;;;;;;;;;;9.92;100.00;99338.09;5082564;28;19942;-73
2023/10/24 00:02:44;;;;;;;;;;;;;;;9.94;100.00;99344.97;5085626;28;19965;-73
2023/10/24 00:05:29;;;;;;;;;;;;;;;9.92;100.00;99347.25;5082292;28;19919;-73
2023/10/24 00:08:12;;;;;;;;;;;;;;;9.89;100.00;99345.13;5097572;28;20363;-73
2023/10/24 00:11:03;;;;;;;;;;;;;;;9.85;100.00;99356.00;5101085;28;19919;-73
2023/10/24 00:13:47;;;;;;;;;;;;;;;9.82;100.00;99364.97;5100381;28;19919;-73
2023/10/24 00:16:32;;;;;;;;;;;;;;;9.76;100.00;99351.56;5092821;28;20007;-73
2023/10/24 00:19:16;;;;;;;;;;;;;;;9.75;100.00;99350.75;5095108;28;19919;-73
2023/10/24 00:22:00;;;;;;;;;;;;;;;9.76;100.00;99362.66;5100053;28;20410;-72
2023/10/24 00:24:44;;;;;;;;;;;;;;;9.72;100.00;99362.47;5081259;28;19935;-73
2023/10/24 00:27:28;;;;;;;;;;;;;;;9.69;100.00;99356.72;5096094;28;19931;-73
2023/10/24 00:30:12;;;;;;;;;;;;;;;9.68;100.00;99355.09;5105565;28;19923;-73
2023/10/24 00:32:56;;;;;;;;;;;;;;;9.68;100.00;99355.09;5087595;28;19919;-73
2023/10/24 00:35:40;;;;;;;;;;;;;;;9.62;100.00;99358.00;5085274;28;19934;-73
2023/10/24 00:38:24;;;;;;;;;;;;;;;9.62;100.00;99352.44;5100113;28;19943;-75
2023/10/24 00:41:08;;;;;;;;;;;;;;;9.60;100.00;99348.34;5099714;28;19962;-75
2023/10/24 00:43:52;;;;;;;;;;;;;;;9.57;100.00;99349.81;5097226;28;20000;-74
2023/10/24 00:46:36;;;;;;;;;;;;;;;9.56;100.00;99342.63;5099225;28;19962;-73
2023/10/24 00:49:20;;;;;;;;;;;;;;;9.55;100.00;99337.38;5079356;28;19935;-73
2023/10/24 00:52:04;;;;;;;;;;;;;;;9.55;100.00;99346.53;5079269;28;20265;-73
2023/10/24 00:54:48;;;;;;;;;;;;;;;9.55;100.00;99348.47;5093756;28;20311;-73
2023/10/24 00:57:31;;;;;;;;;;;;;;;9.54;100.00;99342.13;5093105;28;20384;-73
2023/10/24 01:00:16;;;;;;;;;;;;;;;9.49;100.00;99341.44;5093348;28;20402;-73
2023/10/24 01:03:00;;;;;;;;;;;;;;;9.46;100.00;99348.41;5094144;28;19934;-74
2023/10/24 01:05:44;;;;;;;;;;;;;;;9.44;100.00;99338.78;5099216;28;19919;-73
2023/10/24 01:08:28;;;;;;;;;;;;;;;9.45;100.00;99338.47;5068420;28;20178;-73
2023/10/24 01:11:12;;;;;;;;;;;;;;;9.44;100.00;99339.59;5095295;28;20386;-73
2023/10/24 01:13:56;;;;;;;;;;;;;;;9.45;100.00;99340.44;5100063;28;19919;-73
2023/10/24 01:16:41;;;;;;;;;;;;;;;9.43;100.00;99343.50;5099694;28;19923;-73
2023/10/24 01:19:26;;;;;;;;;;;;;;;9.38;100.00;99344.44;5084500;28;20268;-73
2023/10/24 01:22:10;;;;;;;;;;;;;;;9.40;100.00;99344.13;5098924;28;19933;-73
2023/10/24 01:24:54;;;;;;;;;;;;;;;9.37;100.00;99336.47;5087487;28;19919;-73
2023/10/24 01:27:38;;;;;;;;;;;;;;;9.35;100.00;99335.94;5083193;28;19996;-73
2023/10/24 01:30:22;;;;;;;;;;;;;;;9.33;100.00;99338.22;5098255;28;19966;-73
2023/10/24 01:33:06;;;;;;;;;;;;;;;9.32;100.00;99344.91;5088420;28;19935;-73
2023/10/24 01:35:50;;;;;;;;;;;;;;;9.27;100.00;99347.78;5092571;28;20015;-73
2023/10/24 01:38:34;;;;;;;;;;;;;;;9.21;100.00;99357.34;5095134;28;19934;-73
2023/10/24 01:41:18;;;;;;;;;;;;;;;9.20;100.00;99345.47;5101653;28;20426;-73
2023/10/24 01:44:02;;;;;;;;;;;;;;;9.15;100.00;99354.69;5086688;28;19919;-73
2023/10/24 01:46:46;;;;;;;;;;;;;;;9.12;100.00;99358.09;5094995;28;19927;-73
2023/10/24 01:49:30;;;;;;;;;;;;;;;9.07;100.00;99360.97;5098521;28;19918;-73
2023/10/24 01:52:14;;;;;;;;;;;;;;;9.02;100.00;99357.50;5081308;28;20417;-73
2023/10/24 01:54:58;;;;;;;;;;;;;;;9.00;100.00;99362.53;5078907;28;19919;-73
2023/10/24 01:57:42;;;;;;;;;;;;;;;8.92;100.00;99361.34;5098896;28;19961;-73
2023/10/24 02:00:26;;;;;;;;;;;;;;;8.89;100.00;99361.97;5077766;28;20291;-73
2023/10/24 02:03:10;;;;;;;;;;;;;;;8.83;100.00;99366.78;5079685;28;19919;-73
2023/10/24 02:05:54;;;;;;;;;;;;;;;8.80;100.00;99370.16;5083710;28;20008;-73
2023/10/24 02:08:38;;;;;;;;;;;;;;;8.77;100.00;99372.72;5088765;28;19944;-73
2023/10/24 02:11:22;;;;;;;;;;;;;;;8.69;100.00;99369.56;5098091;28;19957;-73
2023/10/24 02:14:05;;;;;;;;;;;;;;;8.66;100.00;99370.19;5098946;28;19982;-73
2023/10/24 02:16:49;;;;;;;;;;;;;;;8.61;100.00;99370.31;5079972;28;20021;-73
2023/10/24 02:19:33;;;;;;;;;;;;;;;8.59;100.00;99380.84;5095795;28;20034;-73
2023/10/24 02:22:18;;;;;;;;;;;;;;;8.56;100.00;99373.16;5099085;28;19918;-73
2023/10/24 02:25:02;;;;;;;;;;;;;;;8.51;100.00;99376.03;5109566;28;19923;-73
2023/10/24 02:27:46;;;;;;;;;;;;;;;8.49;100.00;99372.75;5082790;28;19993;-73
2023/10/24 02:30:30;;;;;;;;;;;;;;;8.44;100.00;99379.22;5092153;28;19919;-73
2023/10/24 02:33:14;;;;;;;;;;;;;;;8.43;100.00;99377.56;5084760;28;19924;-73
2023/10/24 02:36:10;;;;;;;;;;;;;;;8.38;100.00;99382.34;5095491;28;20276;-73
2023/10/24 02:38:54;;;;;;;;;;;;;;;8.33;100.00;99369.47;5097191;28;19969;-73
2023/10/24 02:41:38;;;;;;;;;;;;;;;8.32;100.00;99376.09;5082877;28;19935;-73
2023/10/24 02:44:22;;;;;;;;;;;;;;;8.29;100.00;99376.72;5082946;28;19938;-73
2023/10/24 02:47:06;;;;;;;;;;;;;;;8.28;100.00;99378.66;5082556;28;19922;-73
2023/10/24 02:49:51;;;;;;;;;;;;;;;8.23;100.00;99373.22;5098248;28;19934;-73
2023/10/24 02:52:35;;;;;;;;;;;;;;;8.20;100.00;99378.56;5088524;28;19935;-73
2023/10/24 02:55:19;;;;;;;;;;;;;;;8.16;100.00;99372.84;5097337;28;20018;-73
2023/10/24 02:58:03;;;;;;;;;;;;;;;8.14;100.00;99380.59;5077305;28;19928;-73
2023/10/24 03:00:47;;;;;;;;;;;;;;;8.13;100.00;99378.13;5082548;28;19919;-73
2023/10/24 03:03:31;;;;;;;;;;;;;;;8.11;100.00;99375.69;5082409;28;19919;-73
2023/10/24 03:06:16;;;;;;;;;;;;;;;8.08;100.00;99381.84;5097701;28;19919;-73
2023/10/24 03:09:00;;;;;;;;;;;;;;;8.05;100.00;99387.94;5090821;28;20242;-73
2023/10/24 03:11:44;;;;;;;;;;;;;;;8.04;100.00;99384.38;5096750;28;20049;-73
2023/10/24 03:14:28;;;;;;;;;;;;;;;8.00;100.00;99382.53;5093214;28;19981;-73
2023/10/24 03:17:12;;;;;;;;;;;;;;;7.99;100.00;99378.09;5090380;28;19980;-73
2023/10/24 03:19:56;;;;;;;;;;;;;;;7.94;100.00;99386.50;5084123;28;19919;-73
2023/10/24 03:22:40;;;;;;;;;;;;;;;7.93;100.00;99387.63;5096002;28;19919;-73
2023/10/24 03:25:27;;;;;;;;;;;;;;;7.93;100.00;99393.16;5097027;28;19923;-73
2023/10/24 03:28:11;;;;;;;;;;;;;;;7.90;100.00;99383.53;5085452;28;20409;-73
2023/10/24 03:31:04;;;;;;;;;;;;;;;7.88;100.00;99376.66;5095280;28;19981;-73
2023/10/24 03:33:48;;;;;;;;;;;;;;;7.85;100.00;99394.66;5082568;28;20391;-73
2023/10/24 03:36:32;;;;;;;;;;;;;;;7.84;100.00;99393.03;5094211;28;19943;-74
2023/10/24 03:39:16;;;;;;;;;;;;;;;7.79;100.00;99395.88;5084490;28;20375;-73
2023/10/24 03:42:01;;;;;;;;;;;;;;;7.80;100.00;99387.31;5097410;28;19973;-73
2023/10/24 03:44:45;;;;;;;;;;;;;;;7.76;100.00;99391.78;5097732;28;19993;-73
2023/10/24 03:47:30;;;;;;;;;;;;;;;7.77;100.00;99393.44;5084449;28;20338;-73
2023/10/24 03:50:13;;;;;;;;;;;;;;;7.72;100.00;99396.28;5097601;28;20369;-73
2023/10/24 03:52:57;;;;;;;;;;;;;;;7.74;100.00;99398.72;5086039;28;19919;-73
2023/10/24 03:55:41;;;;;;;;;;;;;;;7.69;100.00;99390.53;5083991;28;19958;-73
2023/10/24 03:58:25;;;;;;;;;;;;;;;7.72;100.00;99389.94;5097804;28;19966;-73
2023/10/24 04:01:10;;;;;;;;;;;;;;;7.71;100.00;99389.09;5084360;28;19920;-73
2023/10/24 04:03:53;;;;;;;;;;;;;;;7.67;100.00;99390.84;5089753;28;20387;-73
2023/10/24 04:06:37;;;;;;;;;;;;;;;7.65;100.00;99379.25;5095326;28;19996;-73
2023/10/24 04:09:21;;;;;;;;;;;;;;;7.62;100.00;99385.38;5082176;28;19919;-73
2023/10/24 04:12:06;;;;;;;;;;;;;;;7.63;100.00;99380.69;5090757;28;20280;-73
2023/10/24 04:14:50;;;;;;;;;;;;;;;7.57;100.00;99380.75;5093745;28;20048;-73
2023/10/24 04:17:34;;;;;;;;;;;;;;;7.57;100.00;99382.72;5095604;28;19919;-73
2023/10/24 04:20:18;;;;;;;;;;;;;;;7.58;100.00;99387.13;5096238;28;20004;-73
2023/10/24 04:23:03;;;;;;;;;;;;;;;7.59;100.00;99386.00;5095712;28;19981;-73
2023/10/24 04:25:47;;;;;;;;;;;;;;;7.57;100.00;99391.81;5078438;28;19919;-73
2023/10/24 04:28:31;;;;;;;;;;;;;;;7.56;100.00;99386.59;5090548;28;19958;-73
2023/10/24 04:31:15;;;;;;;;;;;;;;;7.51;100.00;99379.22;5083687;28;19918;-73
2023/10/24 04:33:59;;;;;;;;;;;;;;;7.48;100.00;99385.34;5082134;28;20371;-73
2023/10/24 04:36:43;;;;;;;;;;;;;;;7.49;100.00;99386.16;5099566;28;19989;-73
2023/10/24 04:39:29;;;;;;;;;;;;;;;7.48;100.00;99382.56;5089752;28;20260;-73
2023/10/24 04:42:13;;;;;;;;;;;;;;;7.42;100.00;99389.31;5098876;28;19922;-73
2023/10/24 04:44:57;;;;;;;;;;;;;;;7.44;100.00;99389.00;5085341;28;19919;-73
2023/10/24 04:47:41;;;;;;;;;;;;;;;7.38;100.00;99386.34;5093640;28;19920;-73
2023/10/24 04:50:26;;;;;;;;;;;;;;;7.36;100.00;99374.75;5099429;28;19923;-73
2023/10/24 04:53:10;;;;;;;;;;;;;;;7.34;100.00;99378.94;5071667;28;19920;-73
2023/10/24 04:55:54;;;;;;;;;;;;;;;7.35;100.00;99384.19;5088450;28;20398;-73
2023/10/24 04:58:38;;;;;;;;;;;;;;;7.34;100.00;99384.47;5084340;28;19958;-73
2023/10/24 05:01:22;;;;;;;;;;;;;;;7.29;100.00;99382.59;5072039;28;19947;-73
2023/10/24 05:04:06;;;;;;;;;;;;;;;7.29;100.00;99382.59;5093593;28;19920;-73
2023/10/24 05:06:50;;;;;;;;;;;;;;;7.29;100.00;99381.78;5098589;28;19965;-73
2023/10/24 05:09:34;;;;;;;;;;;;;;;7.25;100.00;99376.03;5098897;28;19920;-74
2023/10/24 05:12:18;;;;;;;;;;;;;;;7.25;100.00;99375.22;5093209;28;19944;-73
2023/10/24 05:15:03;;;;;;;;;;;;;;;7.26;100.00;99377.66;5086086;28;20264;-73
2023/10/24 05:17:47;;;;;;;;;;;;;;;7.22;100.00;99376.66;5097879;28;19923;-73
2023/10/24 05:20:31;;;;;;;;;;;;;;;7.26;100.00;99377.66;5095772;28;19958;-73
2023/10/24 05:23:15;;;;;;;;;;;;;;;7.21;100.00;99379.69;5080331;28;19920;-73
2023/10/24 05:25:59;;;;;;;;;;;;;;;7.18;100.00;99377.53;5097544;28;20379;-73
2023/10/24 05:28:43;;;;;;;;;;;;;;;7.22;100.00;99376.66;5084459;28;19922;-73
2023/10/24 05:31:27;;;;;;;;;;;;;;;7.16;100.00;99383.38;5088386;28;19958;-73
2023/10/24 05:34:11;;;;;;;;;;;;;;;7.13;100.00;99381.19;5099026;28;19934;-73
2023/10/24 05:36:55;;;;;;;;;;;;;;;7.13;100.00;99376.50;5092560;28;19928;-73
2023/10/24 05:39:39;;;;;;;;;;;;;;;7.10;100.00;99379.03;5098255;28;19920;-73
2023/10/24 05:42:23;;;;;;;;;;;;;;;7.12;100.00;99382.31;5077789;28;19970;-73
2023/10/24 05:45:07;;;;;;;;;;;;;;;7.08;100.00;99375.75;5079430;28;19927;-73
2023/10/24 05:47:52;;;;;;;;;;;;;;;7.11;100.00;99364.94;5098377;28;19918;-73
2023/10/24 05:50:36;;;;;;;;;;;;;;;7.09;100.00;99372.69;5070958;28;20349;-73
2023/10/24 05:53:20;;;;;;;;;;;;;;;7.07;100.00;99357.53;5070152;28;19919;-73
2023/10/24 05:56:04;;;;;;;;;;;;;;;7.09;100.00;99356.13;5091712;28;19962;-73
2023/10/24 05:58:48;;;;;;;;;;;;;;;7.05;100.00;99348.72;5105831;28;20309;-74
2023/10/24 06:01:32;;;;;;;;;;;;;;;7.06;100.00;99344.84;5109735;27;20052;-73
2023/10/24 06:04:16;;;;;;;;;;;;;;;7.05;100.00;99345.97;5098811;28;19919;-74
2023/10/24 06:07:00;;;;;;;;;;;;;;;6.99;100.00;99339.69;5079126;28;19983;-74
2023/10/24 06:09:44;;;;;;;;;;;;;;;7.02;100.00;99339.13;5094359;28;19918;-74
2023/10/24 06:12:28;;;;;;;;;;;;;;;6.99;100.00;99336.13;5077336;28;19923;-74
2023/10/24 06:15:12;;;;;;;;;;;;;;;6.97;100.00;99341.13;5088035;28;19969;-74
2023/10/24 06:17:56;;;;;;;;;;;;;;;7.01;100.00;99331.13;5088129;28;19977;-74
2023/10/24 06:20:41;;;;;;;;;;;;;;;6.99;100.00;99336.13;5098809;28;19958;-74
2023/10/24 06:23:25;;;;;;;;;;;;;;;6.98;100.00;99335.31;5071909;28;19923;-74
2023/10/24 06:26:13;;;;;;;;;;;;;;;6.97;100.00;99335.63;5098567;28;19919;-74
2023/10/24 06:28:57;;;;;;;;;;;;;;;6.98;100.00;99334.50;5097786;28;19919;-74
2023/10/24 06:31:41;;;;;;;;;;;;;;;6.96;100.00;99337.53;5096962;28;20391;-74
2023/10/24 06:34:25;;;;;;;;;;;;;;;6.92;100.00;99345.59;5084372;28;19954;-74
2023/10/24 06:37:09;;;;;;;;;;;;;;;6.93;100.00;99336.19;5079526;28;19939;-74
2023/10/24 06:39:53;;;;;;;;;;;;;;;6.92;100.00;99333.75;5091637;28;20447;-74
2023/10/24 06:42:37;;;;;;;;;;;;;;;6.90;100.00;99338.72;5099509;28;20363;-74
2023/10/24 06:45:21;;;;;;;;;;;;;;;6.88;100.00;99350.09;5097429;28;20248;-74
2023/10/24 06:48:06;;;;;;;;;;;;;;;6.89;100.00;99340.69;5098094;28;19957;-74
2023/10/24 06:50:50;;;;;;;;;;;;;;;6.87;100.00;99340.16;5086599;28;20004;-74
2023/10/24 06:53:34;;;;;;;;;;;;;;;6.86;100.00;99338.50;5084845;28;19957;-74
2023/10/24 06:56:18;;;;;;;;;;;;;;;6.90;100.00;99342.31;5075341;28;19923;-74
2023/10/24 06:59:02;;;;;;;;;;;;;;;6.91;100.00;99341.22;5085334;28;20307;-75
2023/10/24 07:01:47;;;;;;;;;;;;;;;6.89;100.00;99340.69;5083568;28;19920;-74
2023/10/24 07:04:30;;;;;;;;;;;;;;;6.94;100.00;99335.09;5082667;28;19920;-75
2023/10/24 07:07:14;;;;;;;;;;;;;;;6.99;100.00;99333.34;5096107;28;19919;-74
2023/10/24 07:09:58;;;;;;;;;;;;;;;7.06;100.00;99337.38;5096873;28;20205;-74
2023/10/24 07:12:42;;;;;;;;;;;;;;;7.10;100.00;99334.84;5093875;28;20245;-75
2023/10/24 07:15:26;;;;;;;;;;;;;;;7.12;100.00;99327.09;5106247;28;19927;-75
2023/10/24 07:18:10;;;;;;;;;;;;;;;7.16;100.00;99333.66;5083636;28;19939;-75
2023/10/24 07:20:56;;;;;;;;;;;;;;;7.22;100.00;99337.97;5093078;28;19919;-75
2023/10/24 07:23:40;;;;;;;;;;;;;;;7.30;100.00;99340.06;5097327;28;19958;-75
2023/10/24 07:26:27;;;;;;;;;;;;;;;7.37;100.00;99343.25;5086289;28;19920;-75
2023/10/24 07:29:11;;;;;;;;;;;;;;;7.47;100.00;99346.97;5096696;28;19919;-75
2023/10/24 07:31:56;;;;;;;;;;;;;;;7.56;100.00;99342.41;5097216;28;19919;-74
2023/10/24 07:34:41;;;;;;;;;;;;;;;7.70;100.00;99347.97;5076395;28;19923;-75
2023/10/24 07:37:25;;;;;;;;;;;;;;;7.79;100.00;99357.19;5095592;28;19943;-75
2023/10/24 07:40:09;;;;;;;;;;;;;;;7.90;100.00;99360.59;5097796;28;19919;-75
2023/10/24 07:42:53;;;;;;;;;;;;;;;8.01;100.00;99357.31;5090634;28;20276;-74
2023/10/24 07:45:37;;;;;;;;;;;;;;;8.14;100.00;99369.53;5083452;28;19954;-74
2023/10/24 07:48:21;;;;;;;;;;;;;;;8.26;100.00;99366.28;5093339;28;19922;-74
2023/10/24 07:51:05;;;;;;;;;;;;;;;8.39;100.00;99364.69;5076342;28;19919;-75
2023/10/24 07:53:49;;;;;;;;;;;;;;;8.51;100.00;99359.44;5083393;28;20249;-75
2023/10/24 07:56:33;;;;;;;;;;;;;;;8.66;100.00;99363.81;5097380;28;19970;-74
2023/10/24 07:59:18;;;;;;;;;;;;;;;8.79;100.00;99359.41;5106175;28;19920;-74
2023/10/24 08:02:02;;;;;;;;;;;;;;;8.94;100.00;99361.81;5085061;28;19920;-75
2023/10/24 08:04:46;;;;;;;;;;;;;;;9.08;100.00;99364.56;5076918;28;19920;-74
2023/10/24 08:07:30;;;;;;;;;;;;;;;9.21;100.00;99368.44;5078088;28;20046;-75
2023/10/24 08:10:16;;;;;;;;;;;;;;;9.35;100.00;99361.69;5066349;28;19919;-75
2023/10/24 08:12:59;;;;;;;;;;;;;;;9.51;100.00;99362.16;5098140;28;20272;-74
2023/10/24 08:15:48;;;;;;;;;;;;;;;9.63;100.00;99367.94;5093927;28;19992;-75
2023/10/24 08:18:31;;;;;;;;;;;;;;;9.79;100.00;99357.28;5090756;28;19935;-75
2023/10/24 08:21:16;;;;;;;;;;;;;;;9.95;100.00;99359.69;5086502;28;20247;-75
2023/10/24 08:24:00;;;;;;;;;;;;;;;10.09;100.00;99359.59;5100276;28;19935;-74
2023/10/24 08:26:44;;;;;;;;;;;;;;;10.25;100.00;99352.44;5079834;28;19919;-75
2023/10/24 08:29:28;;;;;;;;;;;;;;;10.43;100.00;99353.38;5100790;28;19950;-75
2023/10/24 08:32:12;;;;;;;;;;;;;;;10.57;100.00;99351.31;5093734;28;19934;-75
2023/10/24 08:34:56;;;;;;;;;;;;;;;10.71;100.00;99354.78;5095021;28;19958;-75
2023/10/24 08:37:40;;;;;;;;;;;;;;;10.86;100.00;99342.38;5066915;28;20438;-74
2023/10/24 08:40:25;;;;;;;;;;;;;;;10.99;100.00;99339.78;5097834;28;19938;-74
2023/10/24 08:43:09;;;;;;;;;;;;;;;11.15;100.00;99343.72;5094751;28;19958;-75
2023/10/24 08:45:53;;;;;;;;;;;;;;;11.28;100.00;99347.47;5089707;28;19922;-75
2023/10/24 08:48:38;;;;;;;;;;;;;;;11.46;100.00;99339.97;5084561;28;19919;-75
2023/10/24 08:51:22;;;;;;;;;;;;;;;11.59;100.00;99344.53;5099634;28;19919;-75
2023/10/24 08:54:06;;;;;;;;;;;;;;;11.73;100.00;99344.31;5097657;28;19945;-75
2023/10/24 08:56:50;;;;;;;;;;;;;;;11.88;100.00;99343.03;5096985;28;20276;-75
2023/10/24 08:59:35;;;;;;;;;;;;;;;12.00;100.00;99343.16;5079251;28;19918;-75
2023/10/24 09:02:19;;;;;;;;;;;;;;;12.15;100.00;99350.16;5099335;28;19920;-75
2023/10/24 09:05:03;;;;;;;;;;;;;;;12.28;100.00;99352.69;5100072;28;20343;-75
2023/10/24 09:07:47;;;;;;;;;;;;;;;12.41;100.00;99356.44;5097478;28;19946;-75
2023/10/24 09:10:31;;;;;;;;;;;;;;;12.55;100.00;99358.97;5084580;28;19919;-75
2023/10/24 09:13:15;;;;;;;;;;;;;;;12.69;100.00;99348.41;5099233;28;20444;-75
2023/10/24 09:16:06;;;;;;;;;;;;;;;12.84;100.00;99348.97;5080128;28;20311;-75
2023/10/24 09:18:50;;;;;;;;;;;;;;;12.99;100.00;99355.94;5079316;28;20299;-75
2023/10/24 09:21:34;;;;;;;;;;;;;;;13.09;100.00;99355.53;5086531;28;19919;-75
2023/10/24 09:24:18;;;;;;;;;;;;;;;13.20;100.00;99353.97;5091853;28;19919;-75
2023/10/24 09:27:02;;;;;;;;;;;;;;;13.31;100.00;99351.63;5078687;28;19919;-74
2023/10/24 09:29:48;;;;;;;;;;;;;;;13.45;100.00;99354.13;5094532;28;19919;-74
2023/10/24 09:32:32;;;;;;;;;;;;;;;13.48;100.00;99359.03;5098589;28;19965;-75
2023/10/24 09:35:16;;;;;;;;;;;;;;;13.55;100.00;99351.75;5096006;28;20014;-75
2023/10/24 09:38:00;;;;;;;;;;;;;;;13.70;100.00;99341.91;5098169;28;20029;-74
2023/10/24 09:40:44;;;;;;;;;;;;;;;13.82;100.00;99332.78;5095966;28;19926;-75
2023/10/24 09:43:28;;;;;;;;;;;;;;;13.90;100.00;99331.88;5100720;28;20006;-75
2023/10/24 09:46:12;;;;;;;;;;;;;;;14.04;100.00;99329.59;5092442;28;20008;-74
2023/10/24 09:48:56;;;;;;;;;;;;;;;14.18;100.00;99334.00;5079932;28;20313;-74
2023/10/24 09:51:40;;;;;;;;;;;;;;;14.30;100.00;99334.03;5091425;28;19918;-75
2023/10/24 09:54:24;;;;;;;;;;;;;;;14.39;100.00;99328.34;5092192;28;19958;-74
2023/10/24 09:57:09;;;;;;;;;;;;;;;14.51;100.00;99326.38;5092619;28;20483;-75
2023/10/24 09:59:55;;;;;;;;;;;;;;;14.64;100.00;99324.41;5093177;28;19959;-75
2023/10/24 10:02:41;;;;;;;;;;;;;;;14.72;100.00;99323.47;5089018;28;19950;-74
2023/10/24 10:05:28;;;;;;;;;;;;;;;14.83;100.00;99321.03;5085888;28;19961;-74
2023/10/24 10:08:12;;;;;;;;;;;;;;;14.97;100.00;99309.47;5083933;28;19977;-74
2023/10/24 10:10:55;;;;;;;;;;;;;;;15.08;100.00;99298.63;5083733;28;19918;-75
2023/10/24 10:13:47;;;;;;;;;;;;;;;15.14;100.00;99300.00;5098254;28;19962;-75
2023/10/24 10:16:31;;;;;;;;;;;;;;;15.24;100.00;99299.50;5097497;28;20445;-74
2023/10/24 10:19:15;;;;;;;;;;;;;;;15.33;100.00;99285.38;5087936;28;19918;-75
2023/10/24 10:22:01;;;;;;;;;;;;;;;15.44;100.00;99288.47;5097787;28;20008;-75
2023/10/24 10:25:04;;;;;;;;;;;;;;;15.53;100.00;99275.13;5079098;28;20062;-74
2023/10/24 10:27:51;;;;;;;;;;;;;;;15.61;100.00;99276.97;5090846;28;20409;-75
2023/10/24 10:30:36;;;;;;;;;;;;;;;15.72;100.00;99264.09;5085973;28;19935;-74
2023/10/24 10:33:21;;;;;;;;;;;;;;;15.83;100.00;99256.78;5091172;28;19938;-75
2023/10/24 10:36:05;;;;;;;;;;;;;;;15.91;100.00;99265.38;5077398;28;19935;-74
2023/10/24 10:38:49;;;;;;;;;;;;;;;15.97;100.00;99258.34;5097026;28;19927;-75
2023/10/24 10:41:33;;;;;;;;;;;;;;;16.02;100.00;99263.69;5097760;28;19923;-75
2023/10/24 10:44:33;;;;;;;;;;;;;;;16.10;100.00;99259.88;5096497;28;19991;-74
2023/10/24 10:47:18;;;;;;;;;;;;;;;16.19;100.00;99257.72;5065575;28;20467;-75
2023/10/24 10:50:04;;;;;;;;;;;;;;;16.27;100.00;99253.91;5097216;28;19919;-75
2023/10/24 10:53:03;;;;;;;;;;;;;;;16.42;100.00;99248.66;5078359;28;20271;-74
2023/10/24 10:56:06;;;;;;;;;;;;;;;16.48;100.00;99247.19;5094959;28;19919;-74
2023/10/24 10:59:09;;;;;;;;;;;;;;;16.52;100.00;99229.28;5087971;28;19922;-74
2023/10/24 11:02:03;;;;;;;;;;;;;;;16.65;100.00;99229.16;5080970;28;20236;-74
2023/10/24 11:04:46;;;;;;;;;;;;;;;16.73;100.00;99220.53;5098171;28;19923;-75
2023/10/24 11:07:49;;;;;;;;;;;;;;;16.75;100.00;99218.19;5083007;28;20252;-74
2023/10/24 11:10:54;;;;;;;;;;;;;;;16.86;100.00;99212.03;5089524;28;19961;-75
2023/10/24 11:13:42;;;;;;;;;;;;;;;16.94;100.00;99209.00;5087644;28;19919;-74
2023/10/24 11:16:26;;;;;;;;;;;;;;;17.04;100.00;99210.41;5096437;28;19958;-74
2023/10/24 11:19:19;;;;;;;;;;;;;;;17.12;100.00;99206.56;5090858;28;19942;-74
2023/10/24 11:22:03;;;;;;;;;;;;;;;17.20;100.00;99210.34;5096880;28;19969;-74
2023/10/24 11:24:47;;;;;;;;;;;;;;;17.11;100.00;99196.53;5084984;28;20264;-74
2023/10/24 11:27:31;;;;;;;;;;;;;;;17.25;100.00;99198.00;5095084;28;19938;-75
2023/10/24 11:30:15;;;;;;;;;;;;;;;17.30;100.00;99192.06;5091060;28;19954;-75
2023/10/24 11:33:00;;;;;;;;;;;;;;;17.32;100.00;99184.91;5085745;28;19953;-74
2023/10/24 11:35:46;;;;;;;;;;;;;;;17.34;100.00;99176.13;5075805;28;19957;-74
2023/10/24 11:38:30;;;;;;;;;;;;;;;17.35;100.00;99166.53;5096385;28;20438;-75
2023/10/24 11:41:14;;;;;;;;;;;;;;;17.37;100.00;99155.75;5090010;28;19942;-75
2023/10/24 11:43:58;;;;;;;;;;;;;;;17.35;100.00;99150.50;5096439;28;19999;-75
2023/10/24 11:46:42;;;;;;;;;;;;;;;17.34;100.00;99162.09;5096365;28;19935;-74
2023/10/24 11:49:32;;;;;;;;;;;;;;;17.31;100.00;99160.84;5095090;28;19957;-75
2023/10/24 11:52:16;;;;;;;;;;;;;;;17.29;100.00;99157.59;5113562;27;19919;-75
2023/10/24 11:55:00;;;;;;;;;;;;;;;17.29;100.00;99152.00;5097280;28;20432;-74
2023/10/24 11:57:46;;;;;;;;;;;;;;;17.32;100.00;99156.84;5080162;28;19923;-74
2023/10/24 12:00:33;;;;;;;;;;;;;;;17.21;100.00;99150.22;5073631;28;19935;-74
2023/10/24 12:03:17;;;;;;;;;;;;;;;17.19;100.00;99149.81;5100549;28;20294;-75
2023/10/24 12:06:04;;;;;;;;;;;;;;;17.15;100.00;99138.50;5100831;28;19919;-74
2023/10/24 12:08:48;;;;;;;;;;;;;;;17.23;100.00;99135.84;5101586;28;20371;-75
2023/10/24 12:11:32;;;;;;;;;;;;;;;17.45;100.00;99126.63;5099932;28;19941;-75
2023/10/24 12:14:16;;;;;;;;;;;;;;;17.45;100.00;99123.81;5085937;28;19919;-75
2023/10/24 12:17:00;;;;;;;;;;;;;;;17.38;100.00;99124.50;5099683;28;19927;-75
2023/10/24 12:19:44;;;;;;;;;;;;;;;17.36;100.00;99117.66;5100932;28;19923;-75
2023/10/24 12:22:28;;;;;;;;;;;;;;;17.30;100.00;99113.50;5099578;28;19958;-75
2023/10/24 12:25:13;;;;;;;;;;;;;;;17.26;100.00;99118.25;5079866;28;19966;-75
2023/10/24 12:27:57;;;;;;;;;;;;;;;17.25;100.00;99125.88;5087266;28;19954;-75
2023/10/24 12:30:41;;;;;;;;;;;;;;;17.27;100.00;99122.69;5097492;28;19979;-75
2023/10/24 12:33:27;;;;;;;;;;;;;;;17.25;100.00;99120.25;5101068;28;19958;-75
2023/10/24 12:36:11;;;;;;;;;;;;;;;17.21;100.00;99113.75;5095470;28;19919;-75
2023/10/24 12:38:55;;;;;;;;;;;;;;;17.13;100.00;99104.41;5097428;28;20018;-75
2023/10/24 12:41:39;;;;;;;;;;;;;;;17.11;100.00;99109.59;5079073;28;20005;-75
2023/10/24 12:44:23;;;;;;;;;;;;;;;17.11;100.00;99109.59;5099655;28;19920;-75
2023/10/24 12:47:08;;;;;;;;;;;;;;;17.09;100.00;99100.72;5098153;28;19994;-75
2023/10/24 12:49:52;;;;;;;;;;;;;;;17.05;100.00;99091.44;5080373;28;19959;-75
2023/10/24 12:52:36;;;;;;;;;;;;;;;17.04;100.00;99089.00;5089788;28;19924;-75
2023/10/24 12:55:21;;;;;;;;;;;;;;;17.05;100.00;99088.63;5082304;28;19972;-75
2023/10/24 12:58:06;;;;;;;;;;;;;;;17.05;100.00;99085.00;5098177;28;19923;-75
2023/10/24 13:00:50;;;;;;;;;;;;;;;17.05;100.00;99079.38;5089030;28;19958;-75
2023/10/24 13:03:34;;;;;;;;;;;;;;;17.01;100.00;99084.94;5091981;28;19923;-75
2023/10/24 13:06:19;;;;;;;;;;;;;;;17.00;100.00;99076.91;5108901;28;19962;-75
2023/10/24 13:09:03;;;;;;;;;;;;;;;16.99;100.00;99076.09;5078377;28;19920;-75
2023/10/24 13:11:47;;;;;;;;;;;;;;;16.99;100.00;99064.84;5091739;28;19983;-75
2023/10/24 13:14:31;;;;;;;;;;;;;;;16.95;100.00;99059.19;5096053;28;19919;-75
2023/10/24 13:17:15;;;;;;;;;;;;;;;16.94;100.00;99056.78;5091014;28;19923;-75
2023/10/24 13:19:59;;;;;;;;;;;;;;;16.93;100.00;99061.56;5087520;28;19937;-75
2023/10/24 13:22:43;;;;;;;;;;;;;;;16.88;100.00;99059.06;5083378;28;20096;-75
2023/10/24 13:25:29;;;;;;;;;;;;;;;16.85;100.00;99047.78;5083785;28;19926;-75
2023/10/24 13:28:13;;;;;;;;;;;;;;;16.79;100.00;99052.06;5086191;28;20322;-75
2023/10/24 13:30:57;;;;;;;;;;;;;;;16.75;100.00;99043.56;5096179;28;20420;-75
2023/10/24 13:33:44;;;;;;;;;;;;;;;16.69;100.00;99040.25;5079082;28;19982;-75
2023/10/24 13:36:28;;;;;;;;;;;;;;;16.66;100.00;99041.00;4969887;28;3472418;-75
2023/10/24 13:39:12;;;;;;;;;;;;;;;16.63;100.00;99052.97;5085480;28;19923;-75
2023/10/24 13:41:56;;;;;;;;;;;;;;;16.57;100.00;99042.41;5096072;28;19950;-75
2023/10/24 13:44:41;;;;;;;;;;;;;;;16.49;100.00;99036.66;5093872;28;19919;-75
2023/10/24 13:47:24;;;;;;;;;;;;;;;16.45;100.00;99037.75;5089107;28;20272;-75
2023/10/24 13:50:09;;;;;;;;;;;;;;;16.40;100.00;99026.84;5098267;28;19919;-75
2023/10/24 13:52:52;;;;;;;;;;;;;;;16.37;100.00;99022.78;5088336;28;19935;-75
2023/10/24 13:55:37;;;;;;;;;;;;;;;16.30;100.00;99022.66;5086187;28;19919;-75
2023/10/24 13:58:21;;;;;;;;;;;;;;;16.24;100.00;99012.91;5095042;28;19922;-75
2023/10/24 14:01:05;;;;;;;;;;;;;;;16.16;100.00;99006.38;5072221;28;19927;-74
2023/10/24 14:03:49;;;;;;;;;;;;;;;16.09;100.00;99004.22;5083907;28;20401;-75
2023/10/24 14:06:33;;;;;;;;;;;;;;;16.05;100.00;99005.34;5095793;28;20020;-75
2023/10/24 14:09:17;;;;;;;;;;;;;;;15.98;100.00;99011.56;5092739;28;19935;-75
2023/10/24 14:12:01;;;;;;;;;;;;;;;15.92;100.00;99006.63;5086725;28;20041;-75